Flugplatz Celle-Arloh

EDVC · 下萨克森, 德国

罗盘
风向 的 风向 280° Celle-Arloh Airport 4/22
风: 4 kt, 2 beaufort

2 kt

3 kt
改变
0 ft 1.000 2.000 3.000 4.000 5.000
Cloud Cloud Cloud Cloud Cloud Cloud
BKN 200
METAR ETHC 052349Z 28004KT 8000 BKN002 01/01 Q1040 AMB

METAR Celle-Arloh Airport - EDVC

Celle-Arloh Airport是,德国中的小机场。 该机场有一条跑道: 4/22. 该领域的国际民航组织标志是EDVC.

这份报告是针对2023年2月6日 00:49, 当地时间在Celle Army Airfield进行的。

机场观察

风向为280°,速度为4 kt。

可见度为8 km。

有碎云在200 ft的高度。 破损或更高的上限为200 ft。

温度为1 °C,阵风为-3 °C。 露点为1 °C,相对湿度为100%。 海平面上的气压为1040 hPa (QNH)。

白天

今天,太阳从07:53升起,在17:13降落。 这适用于Celle-Arloh Airport,世界夏令时可能有所不同。 当地时间与世界标准时间之间的时差为+1 小时。 当前,没有夏令时有效。

公司介绍

我们没有关于这个机场的公司信息。

体会

到Vliegles.nl去找飞行课程,跳伞和其他飞行体验。 浏览页面,了解Celle-Arloh Airport附近所有可用的活动。 你也可以使用搜索功能来寻找你所在地附近的特定飞行课程、跳伞或其他飞行体验。

跑道

Id 标题 侧风 逆风 侧风 %
4/22 042°-222° 3 kt 2 kt 85 %

逆风成分最大的方向会被突出显示,并用于横风计算。 这并不一定意味着这个方向在使用。

乌云

200 ft BKN 碎云

温度 & 天气

温度 1 °C
露点 1 °C
相对湿度 100%
风寒 -3 °C
Kp-index 0 (0-9)

白天

日出
07:55 (6:40)
中午
12:33
日落
17:12

小工具

你想在你的网站上有一个关于Celle-Arloh Airport的当前航空天气(METAR)的小部件吗?

显示HTML代码

我们和第三方通过cookies跟踪您在我们网站上的互联网行为。如果你继续,我们认为你同意我们的饼干政策